createdAt,value
2023-02-08T00:00:44.591Z,98628.84
2023-02-08T00:03:41.622Z,98621.81
2023-02-08T00:06:38.520Z,98616.81
2023-02-08T00:09:35.370Z,98623.66
2023-02-08T00:12:33.126Z,98622.38
2023-02-08T00:15:29.980Z,98621.31
2023-02-08T00:18:26.888Z,98610.28
2023-02-08T00:21:23.748Z,98622.88
2023-02-08T00:24:20.549Z,98615.94
2023-02-08T00:27:18.163Z,98608.66
2023-02-08T00:30:15.023Z,98615.44
2023-02-08T00:33:12.836Z,98615.22
2023-02-08T00:36:11.760Z,98609.56
2023-02-08T00:39:08.570Z,98611.47
2023-02-08T00:42:05.501Z,98610.75
2023-02-08T00:45:02.375Z,98606.72
2023-02-08T00:47:59.257Z,98606.81
2023-02-08T00:51:01.349Z,98609.03
2023-02-08T00:53:58.219Z,98606.13
2023-02-08T00:56:55.073Z,98609.91
2023-02-08T00:59:51.928Z,98606.72
2023-02-08T01:02:48.794Z,98618.03
2023-02-08T01:05:45.589Z,98616.03
2023-02-08T01:08:42.801Z,98601.50
2023-02-08T01:11:39.612Z,98607.47
2023-02-08T01:14:39.224Z,98600.03
2023-02-08T01:17:36.133Z,98607.47
2023-02-08T01:20:36.453Z,98597.53
2023-02-08T01:23:33.208Z,98594.72
2023-02-08T01:26:31.030Z,98592.13
2023-02-08T01:29:27.866Z,98597.75
2023-02-08T01:32:24.694Z,98606.31
2023-02-08T01:35:21.563Z,98608.19
2023-02-08T01:38:19.850Z,98602.16
2023-02-08T01:41:18.866Z,98601.66
2023-02-08T01:44:15.568Z,98603.66
2023-02-08T01:47:12.569Z,98600.31
2023-02-08T01:50:09.855Z,98601.50
2023-02-08T01:53:06.957Z,98599.41
2023-02-08T01:56:10.356Z,98601.56
2023-02-08T01:59:18.850Z,98591.78
2023-02-08T02:02:19.571Z,98592.53
2023-02-08T02:05:17.977Z,98594.03
2023-02-08T02:08:14.935Z,98593.41
2023-02-08T02:11:12.885Z,98593.88
2023-02-08T02:14:10.369Z,98591.25
2023-02-08T02:17:07.426Z,98591.25
2023-02-08T02:20:18.228Z,98588.31
2023-02-08T02:23:47.002Z,98590.59
2023-02-08T02:27:05.800Z,98597.09
2023-02-08T02:30:47.990Z,98607.09
2023-02-08T02:34:03.589Z,98596.91
2023-02-08T02:37:34.333Z,98601.34
2023-02-08T02:41:00.935Z,98600.16
2023-02-08T02:44:00.021Z,98597.91
2023-02-08T02:47:41.202Z,98597.09
2023-02-08T02:51:03.032Z,98601.59
2023-02-08T02:54:13.772Z,98597.59
2023-02-08T02:57:16.206Z,98597.50
2023-02-08T03:00:22.753Z,98587.34
2023-02-08T03:03:27.359Z,98590.41
2023-02-08T03:07:02.484Z,98594.66
2023-02-08T03:10:24.415Z,98592.75
2023-02-08T03:13:30.870Z,98601.56
2023-02-08T03:17:01.735Z,98604.47
2023-02-08T03:20:09.208Z,98599.25
2023-02-08T03:23:30.685Z,98605.00
2023-02-08T03:26:50.416Z,98601.97
2023-02-08T03:30:26.100Z,98619.53
2023-02-08T03:33:50.030Z,98617.50
2023-02-08T03:37:01.105Z,98619.84
2023-02-08T03:40:35.213Z,98617.53
2023-02-08T03:43:54.274Z,98620.66
2023-02-08T03:46:57.638Z,98613.00
2023-02-08T03:49:59.437Z,98621.81
2023-02-08T03:52:57.111Z,98618.63
2023-02-08T03:56:01.942Z,98617.50
2023-02-08T03:59:03.505Z,98623.03
2023-02-08T04:02:04.052Z,98631.97
2023-02-08T04:05:01.889Z,98622.22
2023-02-08T04:07:58.797Z,98632.75
2023-02-08T04:10:55.636Z,98629.34
2023-02-08T04:13:52.481Z,98622.66
2023-02-08T04:16:49.304Z,98621.38
2023-02-08T04:19:46.117Z,98622.09
2023-02-08T04:22:42.945Z,98626.31
2023-02-08T04:25:39.920Z,98621.53
2023-02-08T04:28:36.816Z,98617.31
2023-02-08T04:31:33.786Z,98615.38
2023-02-08T04:34:30.673Z,98613.72
2023-02-08T04:37:28.071Z,98614.56
2023-02-08T04:40:24.891Z,98617.00
2023-02-08T04:43:21.747Z,98617.44
2023-02-08T04:46:18.609Z,98622.09
2023-02-08T04:49:15.740Z,98619.34
2023-02-08T04:52:12.561Z,98615.50
2023-02-08T04:55:09.417Z,98619.06
2023-02-08T04:58:06.258Z,98619.34
2023-02-08T05:01:07.670Z,98621.78
2023-02-08T05:04:04.809Z,98614.72
2023-02-08T05:07:01.806Z,98612.50
2023-02-08T05:09:58.637Z,98610.84
2023-02-08T05:12:55.514Z,98609.75
2023-02-08T05:15:52.515Z,98615.13
2023-02-08T05:18:49.397Z,98606.47
2023-02-08T05:21:46.209Z,98604.03
2023-02-08T05:24:43.038Z,98610.59
2023-02-08T05:27:40.907Z,98611.84
2023-02-08T05:30:38.993Z,98605.13
2023-02-08T05:33:35.920Z,98608.25
2023-02-08T05:36:32.745Z,98602.91
2023-02-08T05:39:29.561Z,98604.69
2023-02-08T05:42:27.078Z,98611.97
2023-02-08T05:45:23.972Z,98619.63
2023-02-08T05:48:21.028Z,98609.91
2023-02-08T05:51:17.885Z,98608.53
2023-02-08T05:54:14.693Z,98612.09
2023-02-08T05:57:11.530Z,98612.50
2023-02-08T06:00:09.621Z,98618.66
2023-02-08T06:03:06.708Z,98611.38
2023-02-08T06:06:03.821Z,98619.78
2023-02-08T06:09:00.702Z,98612.66
2023-02-08T06:11:57.523Z,98612.81
2023-02-08T06:14:54.332Z,98617.03
2023-02-08T06:17:51.425Z,98609.50
2023-02-08T06:20:48.415Z,98603.59
2023-02-08T06:23:45.276Z,98604.69
2023-02-08T06:26:42.714Z,98609.63
2023-02-08T06:29:39.560Z,98611.56
2023-02-08T06:32:36.384Z,98611.28
2023-02-08T06:35:33.322Z,98620.19
2023-02-08T06:38:30.129Z,98628.13
2023-02-08T06:41:27.235Z,98624.84
2023-02-08T06:44:24.484Z,98624.72
2023-02-08T06:47:25.551Z,98622.78
2023-02-08T06:50:24.138Z,98621.97
2023-02-08T06:53:21.623Z,98630.06
2023-02-08T06:56:19.077Z,98632.50
2023-02-08T06:59:15.897Z,98638.81
2023-02-08T07:02:16.047Z,98628.94
2023-02-08T07:05:14.294Z,98629.63
2023-02-08T07:08:11.124Z,98630.31
2023-02-08T07:11:15.070Z,98632.22
2023-02-08T07:14:15.832Z,98630.31
2023-02-08T07:17:13.037Z,98625.94
2023-02-08T07:20:11.519Z,98630.56
2023-02-08T07:23:08.318Z,98624.81
2023-02-08T07:26:11.940Z,98627.72
2023-02-08T07:29:08.782Z,98629.88
2023-02-08T07:32:07.596Z,98631.81
2023-02-08T07:35:04.731Z,98634.00
2023-02-08T07:38:01.569Z,98636.72
2023-02-08T07:41:06.740Z,98640.44
2023-02-08T07:44:03.722Z,98636.72
2023-02-08T07:47:02.016Z,98637.53
2023-02-08T07:49:58.854Z,98629.47
2023-02-08T07:52:55.676Z,98624.78
2023-02-08T07:55:52.496Z,98631.50
2023-02-08T07:58:49.314Z,98634.81
2023-02-08T08:01:46.160Z,98637.97
2023-02-08T08:04:43.216Z,98631.50
2023-02-08T08:07:40.022Z,98624.50
2023-02-08T08:10:37.345Z,98620.78
2023-02-08T08:13:34.185Z,98623.25
2023-02-08T08:16:31.055Z,98618.97
2023-02-08T08:19:28.402Z,98630.06
2023-02-08T08:22:25.225Z,98627.16
2023-02-08T08:25:22.087Z,98629.81
2023-02-08T08:28:19.040Z,98635.94
2023-02-08T08:31:20.998Z,98623.28
2023-02-08T08:34:17.968Z,98623.78
2023-02-08T08:37:14.774Z,98617.47
2023-02-08T08:40:12.055Z,98612.53
2023-02-08T08:43:08.970Z,98608.03
2023-02-08T08:46:08.100Z,98607.31
2023-02-08T08:49:04.954Z,98609.41
2023-02-08T08:52:01.780Z,98602.94
2023-02-08T08:54:58.602Z,98597.44
2023-02-08T08:57:55.508Z,98591.34
2023-02-08T09:00:53.983Z,98585.91
2023-02-08T09:03:50.821Z,98588.94
2023-02-08T09:06:47.637Z,98588.47
2023-02-08T09:09:47.953Z,98582.13
2023-02-08T09:12:44.722Z,98586.81
2023-02-08T09:15:42.124Z,98587.34
2023-02-08T09:18:39.055Z,98596.63
2023-02-08T09:21:36.798Z,98593.59
2023-02-08T09:24:34.815Z,98583.91
2023-02-08T09:27:31.644Z,98577.53
2023-02-08T09:30:28.466Z,98582.47
2023-02-08T09:33:26.772Z,98582.94
2023-02-08T09:36:27.176Z,98577.66
2023-02-08T09:39:25.553Z,98579.88
2023-02-08T09:42:43.572Z,98588.16
2023-02-08T09:46:00.168Z,98586.41
2023-02-08T09:49:02.902Z,98588.25
2023-02-08T09:52:05.984Z,98598.66
2023-02-08T09:55:34.619Z,98589.19
2023-02-08T09:58:43.041Z,98585.63
2023-02-08T10:01:39.889Z,98575.38
2023-02-08T10:05:05.128Z,98556.19
2023-02-08T10:08:02.259Z,98567.34
2023-02-08T10:11:23.523Z,98565.88
2023-02-08T10:14:49.738Z,98560.16
2023-02-08T10:18:29.036Z,98553.84
2023-02-08T10:21:59.406Z,98549.75
2023-02-08T10:25:08.376Z,98532.41
2023-02-08T10:28:42.752Z,98534.69
2023-02-08T10:32:36.154Z,98552.59
2023-02-08T10:35:44.943Z,98531.09
2023-02-08T10:38:46.853Z,98531.69
2023-02-08T10:41:46.035Z,98532.25
2023-02-08T10:45:22.612Z,98527.09
2023-02-08T10:48:52.731Z,98523.97
2023-02-08T10:51:49.932Z,98526.38
2023-02-08T10:54:46.806Z,98518.03
2023-02-08T10:57:47.082Z,98511.38
2023-02-08T11:00:45.817Z,98507.22
2023-02-08T11:04:10.259Z,98496.78
2023-02-08T11:07:21.416Z,98495.03
2023-02-08T11:10:25.308Z,98497.31
2023-02-08T11:13:24.453Z,98487.97
2023-02-08T11:16:27.012Z,98483.78
2023-02-08T11:19:35.598Z,98481.38
2023-02-08T11:22:34.411Z,98480.41
2023-02-08T11:25:37.081Z,98472.59
2023-02-08T11:28:33.910Z,98477.13
2023-02-08T11:31:32.157Z,98474.16
2023-02-08T11:34:39.184Z,98480.13
2023-02-08T11:37:36.085Z,98466.94
2023-02-08T11:40:43.010Z,98453.94
2023-02-08T11:43:40.272Z,98464.69
2023-02-08T11:46:39.466Z,98452.13
2023-02-08T11:49:41.127Z,98442.63
2023-02-08T11:52:42.375Z,98440.25
2023-02-08T11:55:40.600Z,98442.09
2023-02-08T11:58:37.563Z,98446.22
2023-02-08T12:01:40.971Z,98438.00
2023-02-08T12:04:37.770Z,98442.44
2023-02-08T12:08:19.772Z,98437.38
2023-02-08T12:11:46.280Z,98425.84
2023-02-08T12:15:16.945Z,98420.50
2023-02-08T12:18:36.763Z,98416.22
2023-02-08T12:21:46.352Z,98409.09
2023-02-08T12:25:32.890Z,98415.53
2023-02-08T12:28:57.539Z,98408.16
2023-02-08T12:32:36.304Z,98407.16
2023-02-08T12:36:03.684Z,98403.25
2023-02-08T12:39:53.316Z,98399.84
2023-02-08T12:43:48.573Z,98383.38
2023-02-08T12:47:17.718Z,98387.28
2023-02-08T12:51:00.346Z,98378.28
2023-02-08T12:54:10.263Z,98388.59
2023-02-08T12:57:11.929Z,98376.44
2023-02-08T13:00:32.337Z,98364.19
2023-02-08T13:04:03.841Z,98357.91
2023-02-08T13:07:10.924Z,98357.78
2023-02-08T13:10:42.428Z,98347.63
2023-02-08T13:13:41.487Z,98351.13
2023-02-08T13:16:46.367Z,98358.28
2023-02-08T13:20:04.067Z,98345.16
2023-02-08T13:23:12.634Z,98345.88
2023-02-08T13:26:27.671Z,98353.78
2023-02-08T13:29:28.155Z,98339.81
2023-02-08T13:32:45.286Z,98343.69
2023-02-08T13:35:42.467Z,98329.59
2023-02-08T13:38:44.598Z,98331.31
2023-02-08T13:41:54.468Z,98312.56
2023-02-08T13:44:55.482Z,98307.50
2023-02-08T13:48:00.429Z,98306.53
2023-02-08T13:50:57.512Z,98298.28
2023-02-08T13:53:57.302Z,98303.38
2023-02-08T13:56:55.380Z,98305.44
2023-02-08T14:00:25.892Z,98299.34
2023-02-08T14:03:32.290Z,98312.41
2023-02-08T14:06:30.972Z,98304.81
2023-02-08T14:10:02.759Z,98308.44
2023-02-08T14:13:24.131Z,98306.41
2023-02-08T14:16:40.501Z,98308.41
2023-02-08T14:19:42.483Z,98305.28
2023-02-08T14:22:48.201Z,98302.66
2023-02-08T14:25:48.638Z,98303.56
2023-02-08T14:28:46.736Z,98297.59
2023-02-08T14:31:45.530Z,98291.28
2023-02-08T14:34:44.342Z,98292.06
2023-02-08T14:37:45.587Z,98285.81
2023-02-08T14:40:51.000Z,98286.22
2023-02-08T14:43:48.758Z,98281.94
2023-02-08T14:46:45.696Z,98284.19
2023-02-08T14:49:44.982Z,98276.28
2023-02-08T14:52:52.503Z,98285.81
2023-02-08T14:55:59.804Z,98275.84
2023-02-08T14:59:24.094Z,98276.84
2023-02-08T15:02:26.168Z,98288.44
2023-02-08T15:05:41.768Z,98282.75
2023-02-08T15:08:38.820Z,98284.78
2023-02-08T15:11:35.940Z,98285.38
2023-02-08T15:14:37.277Z,98291.88
2023-02-08T15:17:45.204Z,98290.53
2023-02-08T15:20:44.135Z,98286.16
2023-02-08T15:23:41.187Z,98274.22
2023-02-08T15:26:43.879Z,98272.50
2023-02-08T15:29:44.859Z,98272.28
2023-02-08T15:32:41.791Z,98275.34
2023-02-08T15:35:38.676Z,98273.88
2023-02-08T15:38:38.799Z,98270.19
2023-02-08T15:41:35.864Z,98279.19
2023-02-08T15:44:34.930Z,98279.41
2023-02-08T15:47:37.874Z,98269.00
2023-02-08T15:50:35.646Z,98281.22
2023-02-08T15:53:32.675Z,98280.06
2023-02-08T15:56:38.683Z,98269.44
2023-02-08T15:59:40.255Z,98273.34
2023-02-08T16:02:37.287Z,98271.94
2023-02-08T16:05:35.699Z,98276.00
2023-02-08T16:08:36.084Z,98277.81
2023-02-08T16:11:36.816Z,98277.34
2023-02-08T16:14:47.375Z,98269.91
2023-02-08T16:17:48.942Z,98278.44
2023-02-08T16:20:56.416Z,98284.59
2023-02-08T16:24:28.695Z,98275.50
2023-02-08T16:27:31.099Z,98278.34
2023-02-08T16:30:28.174Z,98268.16
2023-02-08T16:33:26.062Z,98276.69
2023-02-08T16:36:25.350Z,98275.69
2023-02-08T16:39:51.812Z,98271.69
2023-02-08T16:42:48.678Z,98283.88
2023-02-08T16:45:45.593Z,98275.53
2023-02-08T16:48:56.387Z,98282.06
2023-02-08T16:52:00.177Z,98274.09
2023-02-08T16:54:58.722Z,98277.25
2023-02-08T16:57:58.266Z,98278.16
2023-02-08T17:00:55.199Z,98275.72
2023-02-08T17:03:53.074Z,98275.00
2023-02-08T17:06:50.510Z,98277.16
2023-02-08T17:09:47.377Z,98282.75
2023-02-08T17:12:44.213Z,98286.56
2023-02-08T17:15:41.602Z,98281.75
2023-02-08T17:18:38.639Z,98278.00
2023-02-08T17:21:35.466Z,98278.47
2023-02-08T17:24:32.278Z,98278.72
2023-02-08T17:27:29.150Z,98278.06
2023-02-08T17:30:41.976Z,98271.84
2023-02-08T17:33:40.136Z,98273.31
2023-02-08T17:36:37.460Z,98272.91
2023-02-08T17:39:34.435Z,98276.97
2023-02-08T17:42:32.452Z,98272.84
2023-02-08T17:45:29.760Z,98275.78
2023-02-08T17:48:27.133Z,98268.78
2023-02-08T17:51:25.136Z,98282.00
2023-02-08T17:54:22.021Z,98290.88
2023-02-08T18:00:23.837Z,98277.00
2023-02-08T18:03:20.739Z,98270.22
2023-02-08T18:06:18.696Z,98286.66
2023-02-08T18:09:15.792Z,98298.13
2023-02-08T18:12:13.207Z,98291.47
2023-02-08T18:15:16.110Z,98293.72
2023-02-08T18:18:13.044Z,98299.09
2023-02-08T18:21:19.717Z,98298.47
2023-02-08T18:24:16.542Z,98300.81
2023-02-08T18:27:13.401Z,98309.91
2023-02-08T18:30:12.152Z,98304.22
2023-02-08T18:33:10.670Z,98299.16
2023-02-08T18:36:11.291Z,98296.00
2023-02-08T18:39:08.181Z,98302.78
2023-02-08T18:42:05.147Z,98296.66
2023-02-08T18:45:02.007Z,98299.03
2023-02-08T18:47:59.594Z,98296.59
2023-02-08T18:50:58.262Z,98294.25
2023-02-08T18:53:56.112Z,98294.22
2023-02-08T18:56:56.069Z,98297.03
2023-02-08T18:59:54.201Z,98293.59
2023-02-08T19:02:51.196Z,98308.47
2023-02-08T19:05:48.934Z,98298.84
2023-02-08T19:08:46.522Z,98291.63
2023-02-08T19:11:44.945Z,98297.03
2023-02-08T19:14:43.291Z,98294.38
2023-02-08T19:17:40.135Z,98296.53
2023-02-08T19:20:38.613Z,98290.84
2023-02-08T19:23:35.879Z,98303.47
2023-02-08T19:26:39.845Z,98294.00
2023-02-08T19:29:36.699Z,98292.84
2023-02-08T19:32:33.577Z,98304.16
2023-02-08T19:35:30.444Z,98287.97
2023-02-08T19:38:27.367Z,98296.63
2023-02-08T19:41:37.643Z,98297.94
2023-02-08T19:44:34.559Z,98300.22
2023-02-08T19:47:50.063Z,98307.06
2023-02-08T19:50:59.682Z,98308.22
2023-02-08T19:54:01.237Z,98297.41
2023-02-08T19:56:58.135Z,98289.25
2023-02-08T19:59:55.013Z,98298.56
2023-02-08T20:02:52.270Z,98298.25
2023-02-08T20:05:50.394Z,98297.13
2023-02-08T20:08:49.162Z,98296.63
2023-02-08T20:12:01.214Z,98282.06
2023-02-08T20:14:58.114Z,98289.09
2023-02-08T20:17:54.950Z,98294.81
2023-02-08T20:21:03.321Z,98286.19
2023-02-08T20:24:01.557Z,98280.28
2023-02-08T20:26:58.389Z,98281.09
2023-02-08T20:29:56.288Z,98283.69
2023-02-08T20:32:57.415Z,98285.50
2023-02-08T20:35:55.282Z,98280.13
2023-02-08T20:38:54.541Z,98287.78
2023-02-08T20:41:51.450Z,98271.28
2023-02-08T20:44:48.356Z,98272.09
2023-02-08T20:47:46.965Z,98277.28
2023-02-08T20:50:44.179Z,98276.31
2023-02-08T20:53:42.995Z,98278.78
2023-02-08T20:56:40.166Z,98283.66
2023-02-08T20:59:37.842Z,98282.19
2023-02-08T21:02:34.736Z,98277.13
2023-02-08T21:05:31.615Z,98282.84
2023-02-08T21:08:28.449Z,98275.47
2023-02-08T21:11:29.368Z,98280.72
2023-02-08T21:14:26.469Z,98285.94
2023-02-08T21:17:23.347Z,98284.28
2023-02-08T21:20:20.333Z,98278.09
2023-02-08T21:23:17.147Z,98277.97
2023-02-08T21:26:17.881Z,98279.72
2023-02-08T21:29:14.715Z,98278.13
2023-02-08T21:32:11.550Z,98265.97
2023-02-08T21:35:08.460Z,98270.34
2023-02-08T21:38:05.957Z,98255.91
2023-02-08T21:41:35.980Z,98259.38
2023-02-08T21:44:35.096Z,98249.88
2023-02-08T21:47:31.928Z,98241.50
2023-02-08T21:50:47.245Z,98249.31
2023-02-08T21:54:02.900Z,98249.59
2023-02-08T21:57:01.876Z,98246.81
2023-02-08T22:00:01.290Z,98241.34
2023-02-08T22:02:58.263Z,98228.81
2023-02-08T22:05:55.120Z,98232.94
2023-02-08T22:08:51.958Z,98230.13
2023-02-08T22:11:48.978Z,98231.59
2023-02-08T22:14:46.122Z,98239.59
2023-02-08T22:17:43.565Z,98233.13
2023-02-08T22:20:40.394Z,98232.34
2023-02-08T22:23:37.253Z,98227.31
2023-02-08T22:26:34.372Z,98228.59
2023-02-08T22:29:31.258Z,98226.50
2023-02-08T22:32:28.226Z,98227.94
2023-02-08T22:35:25.105Z,98222.31
2023-02-08T22:38:23.415Z,98218.84
2023-02-08T22:41:20.553Z,98219.25
2023-02-08T22:44:18.036Z,98218.19
2023-02-08T22:47:14.939Z,98212.53
2023-02-08T22:50:11.783Z,98215.56
2023-02-08T22:53:08.669Z,98214.19
2023-02-08T22:56:06.363Z,98208.88
2023-02-08T22:59:03.179Z,98207.97
2023-02-08T23:02:01.593Z,98202.97
2023-02-08T23:04:58.534Z,98200.97
2023-02-08T23:07:55.362Z,98200.88
2023-02-08T23:11:03.682Z,98195.91
2023-02-08T23:14:00.717Z,98203.03
2023-02-08T23:16:57.545Z,98205.75
2023-02-08T23:19:54.384Z,98202.72
2023-02-08T23:22:51.248Z,98203.34
2023-02-08T23:25:48.429Z,98214.06
2023-02-08T23:28:46.283Z,98211.94
2023-02-08T23:31:43.258Z,98213.31
2023-02-08T23:34:40.139Z,98201.72
2023-02-08T23:37:37.340Z,98199.09
2023-02-08T23:40:34.189Z,98192.09
2023-02-08T23:43:32.316Z,98200.13
2023-02-08T23:46:30.205Z,98193.59
2023-02-08T23:49:27.069Z,98197.94
2023-02-08T23:52:24.138Z,98200.56
2023-02-08T23:55:20.957Z,98202.50
2023-02-08T23:58:17.767Z,98193.34
